sensor_id;sensor_type;location;lat;lon;timestamp;P1;durP1;ratioP1;P2;durP2;ratioP2
25341;SDS011;13298;48.792;9.154;2023-01-29T00:01:03;12.02;;;5.53;;
25341;SDS011;13298;48.792;9.154;2023-01-29T00:03:31;8.95;;;5.82;;
25341;SDS011;13298;48.792;9.154;2023-01-29T00:05:58;9.27;;;5.40;;
25341;SDS011;13298;48.792;9.154;2023-01-29T00:08:24;6.00;;;4.82;;
25341;SDS011;13298;48.792;9.154;2023-01-29T00:10:50;8.70;;;5.28;;
25341;SDS011;13298;48.792;9.154;2023-01-29T00:13:16;9.82;;;5.35;;
25341;SDS011;13298;48.792;9.154;2023-01-29T00:15:42;8.32;;;5.38;;
25341;SDS011;13298;48.792;9.154;2023-01-29T00:18:19;8.07;;;5.32;;
25341;SDS011;13298;48.792;9.154;2023-01-29T00:20:45;6.97;;;5.00;;
25341;SDS011;13298;48.792;9.154;2023-01-29T00:23:10;7.07;;;4.93;;
25341;SDS011;13298;48.792;9.154;2023-01-29T00:25:36;6.65;;;4.78;;
25341;SDS011;13298;48.792;9.154;2023-01-29T00:28:02;8.75;;;5.10;;
25341;SDS011;13298;48.792;9.154;2023-01-29T00:30:28;8.05;;;5.18;;
25341;SDS011;13298;48.792;9.154;2023-01-29T00:32:53;9.20;;;4.97;;
25341;SDS011;13298;48.792;9.154;2023-01-29T00:35:19;6.50;;;4.70;;
25341;SDS011;13298;48.792;9.154;2023-01-29T00:37:45;7.35;;;5.45;;
25341;SDS011;13298;48.792;9.154;2023-01-29T00:40:10;9.70;;;5.45;;
25341;SDS011;13298;48.792;9.154;2023-01-29T00:42:36;7.70;;;4.93;;
25341;SDS011;13298;48.792;9.154;2023-01-29T00:45:21;7.80;;;4.85;;
25341;SDS011;13298;48.792;9.154;2023-01-29T00:47:46;6.18;;;4.40;;
25341;SDS011;13298;48.792;9.154;2023-01-29T00:50:12;7.00;;;5.10;;
25341;SDS011;13298;48.792;9.154;2023-01-29T00:52:38;6.68;;;4.80;;
25341;SDS011;13298;48.792;9.154;2023-01-29T00:55:08;9.27;;;4.43;;
25341;SDS011;13298;48.792;9.154;2023-01-29T00:57:35;7.60;;;4.65;;
25341;SDS011;13298;48.792;9.154;2023-01-29T01:00:02;8.55;;;5.40;;
25341;SDS011;13298;48.792;9.154;2023-01-29T01:02:32;6.78;;;4.70;;
25341;SDS011;13298;48.792;9.154;2023-01-29T01:05:17;6.95;;;4.75;;
25341;SDS011;13298;48.792;9.154;2023-01-29T01:07:43;8.45;;;5.35;;
25341;SDS011;13298;48.792;9.154;2023-01-29T01:10:16;7.10;;;5.15;;
25341;SDS011;13298;48.792;9.154;2023-01-29T01:12:56;7.93;;;5.55;;
25341;SDS011;13298;48.792;9.154;2023-01-29T01:15:29;8.13;;;5.57;;
25341;SDS011;13298;48.792;9.154;2023-01-29T01:17:59;8.18;;;5.75;;
25341;SDS011;13298;48.792;9.154;2023-01-29T01:20:27;9.25;;;5.28;;
25341;SDS011;13298;48.792;9.154;2023-01-29T01:22:55;7.68;;;5.38;;
25341;SDS011;13298;48.792;9.154;2023-01-29T01:25:24;9.13;;;5.32;;
25341;SDS011;13298;48.792;9.154;2023-01-29T01:27:51;7.60;;;4.82;;
25341;SDS011;13298;48.792;9.154;2023-01-29T01:30:18;6.75;;;4.97;;
25341;SDS011;13298;48.792;9.154;2023-01-29T01:32:44;9.93;;;6.00;;
25341;SDS011;13298;48.792;9.154;2023-01-29T01:35:10;8.80;;;5.60;;
25341;SDS011;13298;48.792;9.154;2023-01-29T01:37:38;8.23;;;4.95;;
25341;SDS011;13298;48.792;9.154;2023-01-29T01:40:05;8.27;;;5.60;;
25341;SDS011;13298;48.792;9.154;2023-01-29T01:42:44;7.72;;;5.13;;
25341;SDS011;13298;48.792;9.154;2023-01-29T01:47:51;8.55;;;5.38;;
25341;SDS011;13298;48.792;9.154;2023-01-29T01:50:49;7.75;;;5.18;;
25341;SDS011;13298;48.792;9.154;2023-01-29T01:53:24;10.32;;;5.65;;
25341;SDS011;13298;48.792;9.154;2023-01-29T01:55:59;8.05;;;5.07;;
25341;SDS011;13298;48.792;9.154;2023-01-29T01:58:36;7.70;;;5.43;;
25341;SDS011;13298;48.792;9.154;2023-01-29T02:01:08;8.38;;;5.57;;
25341;SDS011;13298;48.792;9.154;2023-01-29T02:03:36;7.35;;;5.03;;
25341;SDS011;13298;48.792;9.154;2023-01-29T02:06:30;7.45;;;4.95;;
25341;SDS011;13298;48.792;9.154;2023-01-29T02:09:19;7.70;;;5.18;;
25341;SDS011;13298;48.792;9.154;2023-01-29T02:11:58;8.93;;;5.55;;
25341;SDS011;13298;48.792;9.154;2023-01-29T02:14:37;8.57;;;5.20;;
25341;SDS011;13298;48.792;9.154;2023-01-29T02:17:05;7.13;;;5.07;;
25341;SDS011;13298;48.792;9.154;2023-01-29T02:19:53;7.60;;;5.05;;
25341;SDS011;13298;48.792;9.154;2023-01-29T02:25:40;9.02;;;5.03;;
25341;SDS011;13298;48.792;9.154;2023-01-29T02:31:45;10.07;;;5.18;;
25341;SDS011;13298;48.792;9.154;2023-01-29T02:37:31;8.02;;;4.75;;
25341;SDS011;13298;48.792;9.154;2023-01-29T02:40:07;7.97;;;5.00;;
25341;SDS011;13298;48.792;9.154;2023-01-29T02:42:43;8.35;;;4.90;;
25341;SDS011;13298;48.792;9.154;2023-01-29T02:45:18;10.07;;;5.25;;
25341;SDS011;13298;48.792;9.154;2023-01-29T02:47:59;7.63;;;5.07;;
25341;SDS011;13298;48.792;9.154;2023-01-29T02:50:28;8.63;;;4.93;;
25341;SDS011;13298;48.792;9.154;2023-01-29T02:53:04;10.70;;;4.97;;
25341;SDS011;13298;48.792;9.154;2023-01-29T02:56:18;7.00;;;4.82;;
25341;SDS011;13298;48.792;9.154;2023-01-29T02:58:48;6.25;;;4.55;;
25341;SDS011;13298;48.792;9.154;2023-01-29T03:01:42;7.30;;;4.65;;
25341;SDS011;13298;48.792;9.154;2023-01-29T03:04:18;9.38;;;5.32;;
25341;SDS011;13298;48.792;9.154;2023-01-29T03:06:53;9.52;;;5.28;;
25341;SDS011;13298;48.792;9.154;2023-01-29T03:09:33;7.47;;;4.57;;
25341;SDS011;13298;48.792;9.154;2023-01-29T03:12:15;7.90;;;4.93;;
25341;SDS011;13298;48.792;9.154;2023-01-29T03:15:01;6.90;;;4.57;;
25341;SDS011;13298;48.792;9.154;2023-01-29T03:17:40;9.05;;;4.68;;
25341;SDS011;13298;48.792;9.154;2023-01-29T03:20:22;7.13;;;4.68;;
25341;SDS011;13298;48.792;9.154;2023-01-29T03:22:57;9.18;;;4.85;;
25341;SDS011;13298;48.792;9.154;2023-01-29T03:25:30;6.95;;;4.68;;
25341;SDS011;13298;48.792;9.154;2023-01-29T03:28:17;8.07;;;5.20;;
25341;SDS011;13298;48.792;9.154;2023-01-29T03:31:03;6.38;;;4.05;;
25341;SDS011;13298;48.792;9.154;2023-01-29T03:34:14;8.55;;;5.47;;
25341;SDS011;13298;48.792;9.154;2023-01-29T03:36:55;8.23;;;4.57;;
25341;SDS011;13298;48.792;9.154;2023-01-29T03:39:26;8.35;;;4.88;;
25341;SDS011;13298;48.792;9.154;2023-01-29T03:41:55;7.47;;;4.43;;
25341;SDS011;13298;48.792;9.154;2023-01-29T03:47:29;8.38;;;4.93;;
25341;SDS011;13298;48.792;9.154;2023-01-29T03:50:18;7.35;;;4.97;;
25341;SDS011;13298;48.792;9.154;2023-01-29T03:53:28;7.68;;;4.80;;
25341;SDS011;13298;48.792;9.154;2023-01-29T03:56:54;6.78;;;4.45;;
25341;SDS011;13298;48.792;9.154;2023-01-29T04:02:03;9.07;;;4.68;;
25341;SDS011;13298;48.792;9.154;2023-01-29T04:04:36;7.63;;;5.30;;
25341;SDS011;13298;48.792;9.154;2023-01-29T04:07:07;10.32;;;5.45;;
25341;SDS011;13298;48.792;9.154;2023-01-29T04:09:45;10.38;;;5.35;;
25341;SDS011;13298;48.792;9.154;2023-01-29T04:12:29;9.05;;;4.80;;
25341;SDS011;13298;48.792;9.154;2023-01-29T04:15:03;9.13;;;5.35;;
25341;SDS011;13298;48.792;9.154;2023-01-29T04:17:36;7.90;;;5.38;;
25341;SDS011;13298;48.792;9.154;2023-01-29T04:20:04;8.55;;;5.10;;
25341;SDS011;13298;48.792;9.154;2023-01-29T04:22:31;8.23;;;5.40;;
25341;SDS011;13298;48.792;9.154;2023-01-29T04:25:03;7.97;;;5.20;;
25341;SDS011;13298;48.792;9.154;2023-01-29T04:27:38;6.97;;;4.97;;
25341;SDS011;13298;48.792;9.154;2023-01-29T04:41:16;7.90;;;5.38;;
25341;SDS011;13298;48.792;9.154;2023-01-29T04:44:01;8.30;;;5.63;;
25341;SDS011;13298;48.792;9.154;2023-01-29T04:46:41;7.72;;;5.32;;
25341;SDS011;13298;48.792;9.154;2023-01-29T04:52:34;8.45;;;5.47;;
25341;SDS011;13298;48.792;9.154;2023-01-29T04:55:13;6.35;;;4.68;;
25341;SDS011;13298;48.792;9.154;2023-01-29T05:00:37;10.38;;;5.05;;
25341;SDS011;13298;48.792;9.154;2023-01-29T05:03:07;6.82;;;4.65;;
25341;SDS011;13298;48.792;9.154;2023-01-29T05:05:37;7.68;;;4.97;;
25341;SDS011;13298;48.792;9.154;2023-01-29T05:08:07;8.20;;;5.07;;
25341;SDS011;13298;48.792;9.154;2023-01-29T05:10:37;9.10;;;5.57;;
25341;SDS011;13298;48.792;9.154;2023-01-29T05:13:04;9.98;;;5.85;;
25341;SDS011;13298;48.792;9.154;2023-01-29T05:15:37;9.10;;;5.00;;
25341;SDS011;13298;48.792;9.154;2023-01-29T05:18:08;8.15;;;5.15;;
25341;SDS011;13298;48.792;9.154;2023-01-29T05:20:35;6.55;;;4.78;;
25341;SDS011;13298;48.792;9.154;2023-01-29T05:23:04;9.45;;;5.03;;
25341;SDS011;13298;48.792;9.154;2023-01-29T05:25:35;8.15;;;5.22;;
25341;SDS011;13298;48.792;9.154;2023-01-29T05:28:00;9.23;;;5.32;;
25341;SDS011;13298;48.792;9.154;2023-01-29T05:30:38;7.53;;;5.30;;
25341;SDS011;13298;48.792;9.154;2023-01-29T05:33:08;5.85;;;4.50;;
25341;SDS011;13298;48.792;9.154;2023-01-29T05:35:39;8.27;;;5.13;;
25341;SDS011;13298;48.792;9.154;2023-01-29T05:38:05;8.45;;;5.47;;
25341;SDS011;13298;48.792;9.154;2023-01-29T05:40:31;8.68;;;5.30;;
25341;SDS011;13298;48.792;9.154;2023-01-29T05:42:57;8.43;;;5.30;;
25341;SDS011;13298;48.792;9.154;2023-01-29T05:45:23;9.35;;;4.82;;
25341;SDS011;13298;48.792;9.154;2023-01-29T05:47:49;6.30;;;4.35;;
25341;SDS011;13298;48.792;9.154;2023-01-29T05:50:15;9.90;;;5.30;;
25341;SDS011;13298;48.792;9.154;2023-01-29T05:52:41;7.90;;;5.15;;
25341;SDS011;13298;48.792;9.154;2023-01-29T05:55:07;7.90;;;5.15;;
25341;SDS011;13298;48.792;9.154;2023-01-29T05:57:34;8.75;;;4.60;;
25341;SDS011;13298;48.792;9.154;2023-01-29T06:00:00;10.68;;;5.72;;
25341;SDS011;13298;48.792;9.154;2023-01-29T06:02:28;9.38;;;5.18;;
25341;SDS011;13298;48.792;9.154;2023-01-29T06:04:55;8.02;;;5.00;;
25341;SDS011;13298;48.792;9.154;2023-01-29T06:07:21;7.72;;;4.68;;
25341;SDS011;13298;48.792;9.154;2023-01-29T06:09:46;7.32;;;5.45;;
25341;SDS011;13298;48.792;9.154;2023-01-29T06:12:12;12.05;;;5.32;;
25341;SDS011;13298;48.792;9.154;2023-01-29T06:14:38;9.55;;;4.72;;
25341;SDS011;13298;48.792;9.154;2023-01-29T06:17:03;6.80;;;4.72;;
25341;SDS011;13298;48.792;9.154;2023-01-29T06:19:29;8.35;;;5.18;;
25341;SDS011;13298;48.792;9.154;2023-01-29T06:21:55;11.32;;;5.55;;
25341;SDS011;13298;48.792;9.154;2023-01-29T06:24:21;9.25;;;5.25;;
25341;SDS011;13298;48.792;9.154;2023-01-29T06:26:46;9.95;;;5.10;;
25341;SDS011;13298;48.792;9.154;2023-01-29T06:29:12;10.95;;;5.75;;
25341;SDS011;13298;48.792;9.154;2023-01-29T06:31:38;8.60;;;5.20;;
25341;SDS011;13298;48.792;9.154;2023-01-29T06:34:04;10.05;;;5.35;;
25341;SDS011;13298;48.792;9.154;2023-01-29T06:36:31;8.05;;;5.50;;
25341;SDS011;13298;48.792;9.154;2023-01-29T06:38:57;8.30;;;5.07;;
25341;SDS011;13298;48.792;9.154;2023-01-29T06:41:22;7.65;;;4.97;;
25341;SDS011;13298;48.792;9.154;2023-01-29T06:43:49;9.93;;;5.28;;
25341;SDS011;13298;48.792;9.154;2023-01-29T06:46:15;8.38;;;4.88;;
25341;SDS011;13298;48.792;9.154;2023-01-29T06:48:41;7.00;;;4.82;;
25341;SDS011;13298;48.792;9.154;2023-01-29T06:51:07;8.27;;;5.10;;
25341;SDS011;13298;48.792;9.154;2023-01-29T06:53:35;7.45;;;5.45;;
25341;SDS011;13298;48.792;9.154;2023-01-29T06:56:02;10.73;;;5.20;;
25341;SDS011;13298;48.792;9.154;2023-01-29T06:58:29;8.15;;;5.57;;
25341;SDS011;13298;48.792;9.154;2023-01-29T07:01:08;7.50;;;4.93;;
25341;SDS011;13298;48.792;9.154;2023-01-29T07:03:35;7.20;;;4.97;;
25341;SDS011;13298;48.792;9.154;2023-01-29T07:06:02;6.63;;;4.93;;
25341;SDS011;13298;48.792;9.154;2023-01-29T07:08:28;11.35;;;5.03;;
25341;SDS011;13298;48.792;9.154;2023-01-29T07:11:00;7.15;;;4.55;;
25341;SDS011;13298;48.792;9.154;2023-01-29T07:13:26;9.00;;;4.97;;
25341;SDS011;13298;48.792;9.154;2023-01-29T07:15:52;8.00;;;5.28;;
25341;SDS011;13298;48.792;9.154;2023-01-29T07:18:18;8.35;;;5.43;;
25341;SDS011;13298;48.792;9.154;2023-01-29T07:20:44;9.32;;;4.93;;
25341;SDS011;13298;48.792;9.154;2023-01-29T07:23:10;7.55;;;5.40;;
25341;SDS011;13298;48.792;9.154;2023-01-29T07:25:38;8.23;;;4.55;;
25341;SDS011;13298;48.792;9.154;2023-01-29T07:28:04;7.60;;;4.88;;
25341;SDS011;13298;48.792;9.154;2023-01-29T07:30:31;10.05;;;5.13;;
25341;SDS011;13298;48.792;9.154;2023-01-29T07:33:04;8.73;;;5.40;;
25341;SDS011;13298;48.792;9.154;2023-01-29T07:35:36;8.25;;;5.05;;
25341;SDS011;13298;48.792;9.154;2023-01-29T07:38:03;8.68;;;4.80;;
25341;SDS011;13298;48.792;9.154;2023-01-29T07:40:30;9.13;;;5.28;;
25341;SDS011;13298;48.792;9.154;2023-01-29T07:42:59;8.95;;;5.00;;
25341;SDS011;13298;48.792;9.154;2023-01-29T07:45:27;7.65;;;5.00;;
25341;SDS011;13298;48.792;9.154;2023-01-29T07:47:54;6.38;;;4.63;;
25341;SDS011;13298;48.792;9.154;2023-01-29T07:50:20;7.28;;;4.68;;
25341;SDS011;13298;48.792;9.154;2023-01-29T07:52:49;6.95;;;5.10;;
25341;SDS011;13298;48.792;9.154;2023-01-29T07:55:16;9.75;;;4.93;;
25341;SDS011;13298;48.792;9.154;2023-01-29T07:57:42;8.57;;;4.93;;
25341;SDS011;13298;48.792;9.154;2023-01-29T08:00:08;8.32;;;5.60;;
25341;SDS011;13298;48.792;9.154;2023-01-29T08:02:35;8.85;;;5.20;;
25341;SDS011;13298;48.792;9.154;2023-01-29T08:05:01;7.35;;;5.20;;
25341;SDS011;13298;48.792;9.154;2023-01-29T08:07:27;7.75;;;5.03;;
25341;SDS011;13298;48.792;9.154;2023-01-29T08:09:53;11.38;;;5.40;;
25341;SDS011;13298;48.792;9.154;2023-01-29T08:12:18;11.77;;;5.53;;
25341;SDS011;13298;48.792;9.154;2023-01-29T08:14:44;10.43;;;5.53;;
25341;SDS011;13298;48.792;9.154;2023-01-29T08:17:10;9.15;;;5.13;;
25341;SDS011;13298;48.792;9.154;2023-01-29T08:19:37;7.38;;;4.65;;
25341;SDS011;13298;48.792;9.154;2023-01-29T08:22:03;7.28;;;4.45;;
25341;SDS011;13298;48.792;9.154;2023-01-29T08:24:29;6.78;;;4.50;;
25341;SDS011;13298;48.792;9.154;2023-01-29T08:26:55;7.63;;;4.80;;
25341;SDS011;13298;48.792;9.154;2023-01-29T08:29:21;7.43;;;4.95;;
25341;SDS011;13298;48.792;9.154;2023-01-29T08:31:47;6.97;;;5.10;;
25341;SDS011;13298;48.792;9.154;2023-01-29T08:34:13;8.38;;;5.28;;
25341;SDS011;13298;48.792;9.154;2023-01-29T08:36:38;7.50;;;5.47;;
25341;SDS011;13298;48.792;9.154;2023-01-29T08:39:04;10.20;;;5.47;;
25341;SDS011;13298;48.792;9.154;2023-01-29T08:41:30;7.20;;;5.20;;
25341;SDS011;13298;48.792;9.154;2023-01-29T08:43:55;8.98;;;5.97;;
25341;SDS011;13298;48.792;9.154;2023-01-29T08:46:22;6.88;;;4.75;;
25341;SDS011;13298;48.792;9.154;2023-01-29T08:48:48;7.70;;;5.25;;
25341;SDS011;13298;48.792;9.154;2023-01-29T08:51:13;8.68;;;5.50;;
25341;SDS011;13298;48.792;9.154;2023-01-29T08:53:39;8.48;;;5.38;;
25341;SDS011;13298;48.792;9.154;2023-01-29T08:56:05;8.57;;;5.40;;
25341;SDS011;13298;48.792;9.154;2023-01-29T08:58:31;8.93;;;5.47;;
25341;SDS011;13298;48.792;9.154;2023-01-29T09:01:03;8.82;;;5.43;;
25341;SDS011;13298;48.792;9.154;2023-01-29T09:03:34;7.68;;;5.35;;
25341;SDS011;13298;48.792;9.154;2023-01-29T09:06:00;9.10;;;5.22;;
25341;SDS011;13298;48.792;9.154;2023-01-29T09:08:26;10.13;;;6.05;;
25341;SDS011;13298;48.792;9.154;2023-01-29T09:10:52;7.63;;;5.45;;
25341;SDS011;13298;48.792;9.154;2023-01-29T09:13:17;8.50;;;6.05;;
25341;SDS011;13298;48.792;9.154;2023-01-29T09:15:43;9.50;;;6.05;;
25341;SDS011;13298;48.792;9.154;2023-01-29T09:18:09;7.80;;;5.40;;
25341;SDS011;13298;48.792;9.154;2023-01-29T09:20:34;10.63;;;6.05;;
25341;SDS011;13298;48.792;9.154;2023-01-29T09:23:03;9.55;;;5.90;;
25341;SDS011;13298;48.792;9.154;2023-01-29T09:25:30;7.55;;;5.43;;
25341;SDS011;13298;48.792;9.154;2023-01-29T09:27:56;8.65;;;5.38;;
25341;SDS011;13298;48.792;9.154;2023-01-29T09:30:21;9.38;;;5.97;;
25341;SDS011;13298;48.792;9.154;2023-01-29T09:32:47;6.32;;;5.00;;
25341;SDS011;13298;48.792;9.154;2023-01-29T09:35:13;9.32;;;5.40;;
25341;SDS011;13298;48.792;9.154;2023-01-29T09:37:38;9.77;;;5.20;;
25341;SDS011;13298;48.792;9.154;2023-01-29T09:40:04;7.07;;;5.18;;
25341;SDS011;13298;48.792;9.154;2023-01-29T09:42:42;8.52;;;5.70;;
25341;SDS011;13298;48.792;9.154;2023-01-29T09:45:15;9.05;;;5.72;;
25341;SDS011;13298;48.792;9.154;2023-01-29T09:47:50;12.73;;;6.07;;
25341;SDS011;13298;48.792;9.154;2023-01-29T09:50:23;9.88;;;6.20;;
25341;SDS011;13298;48.792;9.154;2023-01-29T09:53:04;7.75;;;5.50;;
25341;SDS011;13298;48.792;9.154;2023-01-29T09:56:01;14.13;;;5.75;;
25341;SDS011;13298;48.792;9.154;2023-01-29T09:58:52;9.32;;;5.50;;
25341;SDS011;13298;48.792;9.154;2023-01-29T10:04:44;9.68;;;5.28;;
25341;SDS011;13298;48.792;9.154;2023-01-29T10:07:42;11.80;;;6.50;;
25341;SDS011;13298;48.792;9.154;2023-01-29T10:10:43;18.00;;;7.03;;
25341;SDS011;13298;48.792;9.154;2023-01-29T10:13:38;11.63;;;6.15;;
25341;SDS011;13298;48.792;9.154;2023-01-29T10:16:35;9.82;;;5.88;;
25341;SDS011;13298;48.792;9.154;2023-01-29T10:19:32;13.23;;;5.93;;
25341;SDS011;13298;48.792;9.154;2023-01-29T10:25:17;14.38;;;7.07;;
25341;SDS011;13298;48.792;9.154;2023-01-29T10:27:46;11.77;;;6.60;;
25341;SDS011;13298;48.792;9.154;2023-01-29T10:32:46;7.05;;;5.93;;
25341;SDS011;13298;48.792;9.154;2023-01-29T10:35:23;17.33;;;6.38;;
25341;SDS011;13298;48.792;9.154;2023-01-29T10:38:14;8.65;;;5.85;;
25341;SDS011;13298;48.792;9.154;2023-01-29T10:41:05;10.35;;;6.55;;
25341;SDS011;13298;48.792;9.154;2023-01-29T10:50:22;21.00;;;7.97;;
25341;SDS011;13298;48.792;9.154;2023-01-29T10:53:14;10.45;;;6.97;;
25341;SDS011;13298;48.792;9.154;2023-01-29T10:56:07;10.30;;;7.50;;
25341;SDS011;13298;48.792;9.154;2023-01-29T10:58:50;13.90;;;7.45;;
25341;SDS011;13298;48.792;9.154;2023-01-29T11:01:43;8.13;;;6.20;;
25341;SDS011;13298;48.792;9.154;2023-01-29T11:04:09;8.98;;;6.45;;
25341;SDS011;13298;48.792;9.154;2023-01-29T11:06:37;8.40;;;6.40;;
25341;SDS011;13298;48.792;9.154;2023-01-29T11:14:53;8.85;;;5.50;;
25341;SDS011;13298;48.792;9.154;2023-01-29T11:17:32;10.75;;;6.35;;
25341;SDS011;13298;48.792;9.154;2023-01-29T11:19:57;9.32;;;6.20;;
25341;SDS011;13298;48.792;9.154;2023-01-29T11:22:24;9.50;;;6.85;;
25341;SDS011;13298;48.792;9.154;2023-01-29T11:27:45;13.32;;;7.00;;
25341;SDS011;13298;48.792;9.154;2023-01-29T11:30:21;9.32;;;5.97;;
25341;SDS011;13298;48.792;9.154;2023-01-29T11:33:19;9.52;;;6.20;;
25341;SDS011;13298;48.792;9.154;2023-01-29T11:35:50;7.40;;;6.28;;
25341;SDS011;13298;48.792;9.154;2023-01-29T11:38:23;8.90;;;6.90;;
25341;SDS011;13298;48.792;9.154;2023-01-29T11:40:51;8.40;;;5.95;;
25341;SDS011;13298;48.792;9.154;2023-01-29T11:45:50;11.52;;;6.20;;
25341;SDS011;13298;48.792;9.154;2023-01-29T11:48:21;10.90;;;6.22;;
25341;SDS011;13298;48.792;9.154;2023-01-29T11:50:56;9.50;;;6.15;;
25341;SDS011;13298;48.792;9.154;2023-01-29T11:53:43;11.18;;;6.65;;
25341;SDS011;13298;48.792;9.154;2023-01-29T11:56:16;11.25;;;6.50;;
25341;SDS011;13298;48.792;9.154;2023-01-29T11:58:46;10.98;;;6.60;;
25341;SDS011;13298;48.792;9.154;2023-01-29T12:01:15;9.70;;;6.43;;
25341;SDS011;13298;48.792;9.154;2023-01-29T12:03:50;13.90;;;6.88;;
25341;SDS011;13298;48.792;9.154;2023-01-29T12:08:54;10.18;;;6.15;;
25341;SDS011;13298;48.792;9.154;2023-01-29T12:11:29;9.02;;;6.22;;
25341;SDS011;13298;48.792;9.154;2023-01-29T12:13:58;9.40;;;6.47;;
25341;SDS011;13298;48.792;9.154;2023-01-29T12:19:28;15.10;;;6.32;;
25341;SDS011;13298;48.792;9.154;2023-01-29T12:22:26;10.45;;;6.70;;
25341;SDS011;13298;48.792;9.154;2023-01-29T12:34:22;19.17;;;7.40;;
25341;SDS011;13298;48.792;9.154;2023-01-29T12:37:21;11.35;;;6.38;;
25341;SDS011;13298;48.792;9.154;2023-01-29T12:40:13;14.82;;;6.88;;
25341;SDS011;13298;48.792;9.154;2023-01-29T12:42:42;9.70;;;6.20;;
25341;SDS011;13298;48.792;9.154;2023-01-29T12:45:20;11.45;;;7.15;;
25341;SDS011;13298;48.792;9.154;2023-01-29T12:47:50;11.38;;;7.13;;
25341;SDS011;13298;48.792;9.154;2023-01-29T12:50:21;11.60;;;7.50;;
25341;SDS011;13298;48.792;9.154;2023-01-29T12:52:54;15.65;;;7.38;;
25341;SDS011;13298;48.792;9.154;2023-01-29T12:55:46;12.65;;;7.28;;
25341;SDS011;13298;48.792;9.154;2023-01-29T12:58:21;10.43;;;6.95;;
25341;SDS011;13298;48.792;9.154;2023-01-29T13:00:58;10.93;;;7.07;;
25341;SDS011;13298;48.792;9.154;2023-01-29T13:03:33;11.65;;;6.75;;
25341;SDS011;13298;48.792;9.154;2023-01-29T13:06:16;9.45;;;6.70;;
25341;SDS011;13298;48.792;9.154;2023-01-29T13:08:51;11.68;;;7.30;;
25341;SDS011;13298;48.792;9.154;2023-01-29T13:11:28;9.05;;;6.57;;
25341;SDS011;13298;48.792;9.154;2023-01-29T13:14:05;12.63;;;7.07;;
25341;SDS011;13298;48.792;9.154;2023-01-29T13:17:04;10.55;;;7.05;;
25341;SDS011;13298;48.792;9.154;2023-01-29T13:19:41;10.55;;;6.03;;
25341;SDS011;13298;48.792;9.154;2023-01-29T13:22:26;10.23;;;5.63;;
25341;SDS011;13298;48.792;9.154;2023-01-29T13:24:57;12.80;;;7.05;;
25341;SDS011;13298;48.792;9.154;2023-01-29T13:27:27;10.52;;;7.05;;
25341;SDS011;13298;48.792;9.154;2023-01-29T13:32:25;9.32;;;6.90;;
25341;SDS011;13298;48.792;9.154;2023-01-29T13:37:26;11.00;;;6.75;;
25341;SDS011;13298;48.792;9.154;2023-01-29T13:39:57;9.30;;;6.78;;
25341;SDS011;13298;48.792;9.154;2023-01-29T13:45:19;12.23;;;6.55;;
25341;SDS011;13298;48.792;9.154;2023-01-29T13:47:48;11.00;;;7.22;;
25341;SDS011;13298;48.792;9.154;2023-01-29T13:52:52;11.18;;;7.05;;
25341;SDS011;13298;48.792;9.154;2023-01-29T13:55:31;10.32;;;6.55;;
25341;SDS011;13298;48.792;9.154;2023-01-29T13:58:00;10.43;;;7.30;;
25341;SDS011;13298;48.792;9.154;2023-01-29T14:07:53;12.60;;;7.72;;
25341;SDS011;13298;48.792;9.154;2023-01-29T14:18:29;12.25;;;8.43;;
25341;SDS011;13298;48.792;9.154;2023-01-29T14:23:42;15.35;;;8.65;;
25341;SDS011;13298;48.792;9.154;2023-01-29T14:26:19;10.30;;;7.45;;
25341;SDS011;13298;48.792;9.154;2023-01-29T14:29:00;10.48;;;7.90;;
25341;SDS011;13298;48.792;9.154;2023-01-29T14:37:01;12.90;;;8.48;;
25341;SDS011;13298;48.792;9.154;2023-01-29T14:39:43;12.30;;;7.93;;
25341;SDS011;13298;48.792;9.154;2023-01-29T14:45:00;11.50;;;7.78;;
25341;SDS011;13298;48.792;9.154;2023-01-29T14:53:13;12.75;;;7.45;;
25341;SDS011;13298;48.792;9.154;2023-01-29T14:56:23;12.77;;;7.95;;
25341;SDS011;13298;48.792;9.154;2023-01-29T15:04:13;11.07;;;7.80;;
25341;SDS011;13298;48.792;9.154;2023-01-29T15:06:50;17.17;;;8.13;;
25341;SDS011;13298;48.792;9.154;2023-01-29T15:09:28;17.27;;;8.25;;
25341;SDS011;13298;48.792;9.154;2023-01-29T15:12:11;13.25;;;7.45;;
25341;SDS011;13298;48.792;9.154;2023-01-29T15:18:18;9.80;;;6.40;;
25341;SDS011;13298;48.792;9.154;2023-01-29T15:21:08;10.82;;;6.53;;
25341;SDS011;13298;48.792;9.154;2023-01-29T15:23:36;11.63;;;6.50;;
25341;SDS011;13298;48.792;9.154;2023-01-29T15:26:09;11.25;;;6.90;;
25341;SDS011;13298;48.792;9.154;2023-01-29T15:28:41;12.73;;;7.78;;
25341;SDS011;13298;48.792;9.154;2023-01-29T15:31:13;11.90;;;7.90;;
25341;SDS011;13298;48.792;9.154;2023-01-29T15:33:43;16.40;;;7.60;;
25341;SDS011;13298;48.792;9.154;2023-01-29T15:36:17;11.27;;;7.63;;
25341;SDS011;13298;48.792;9.154;2023-01-29T15:38:47;13.43;;;8.00;;
25341;SDS011;13298;48.792;9.154;2023-01-29T15:41:17;12.30;;;7.82;;
25341;SDS011;13298;48.792;9.154;2023-01-29T15:46:29;13.88;;;7.65;;
25341;SDS011;13298;48.792;9.154;2023-01-29T15:49:01;12.27;;;7.45;;
25341;SDS011;13298;48.792;9.154;2023-01-29T15:51:32;13.02;;;7.68;;
25341;SDS011;13298;48.792;9.154;2023-01-29T15:53:59;12.30;;;8.52;;
25341;SDS011;13298;48.792;9.154;2023-01-29T15:56:43;11.77;;;7.72;;
25341;SDS011;13298;48.792;9.154;2023-01-29T15:59:21;11.70;;;7.40;;
25341;SDS011;13298;48.792;9.154;2023-01-29T16:01:50;11.25;;;6.93;;
25341;SDS011;13298;48.792;9.154;2023-01-29T16:04:19;10.68;;;6.90;;
25341;SDS011;13298;48.792;9.154;2023-01-29T16:06:52;10.10;;;6.90;;
25341;SDS011;13298;48.792;9.154;2023-01-29T16:09:20;11.88;;;6.90;;
25341;SDS011;13298;48.792;9.154;2023-01-29T16:11:48;10.32;;;7.18;;
25341;SDS011;13298;48.792;9.154;2023-01-29T16:14:16;11.32;;;7.22;;
25341;SDS011;13298;48.792;9.154;2023-01-29T16:16:46;10.40;;;6.97;;
25341;SDS011;13298;48.792;9.154;2023-01-29T16:19:25;12.35;;;7.38;;
25341;SDS011;13298;48.792;9.154;2023-01-29T16:21:54;13.55;;;7.50;;
25341;SDS011;13298;48.792;9.154;2023-01-29T16:24:25;11.48;;;7.55;;
25341;SDS011;13298;48.792;9.154;2023-01-29T16:26:56;11.57;;;7.72;;
25341;SDS011;13298;48.792;9.154;2023-01-29T16:29:36;11.77;;;7.10;;
25341;SDS011;13298;48.792;9.154;2023-01-29T16:32:02;13.15;;;7.75;;
25341;SDS011;13298;48.792;9.154;2023-01-29T16:37:03;11.40;;;7.63;;
25341;SDS011;13298;48.792;9.154;2023-01-29T16:39:42;10.90;;;7.28;;
25341;SDS011;13298;48.792;9.154;2023-01-29T16:44:44;15.25;;;7.78;;
25341;SDS011;13298;48.792;9.154;2023-01-29T16:47:25;11.30;;;7.40;;
25341;SDS011;13298;48.792;9.154;2023-01-29T16:49:55;12.60;;;7.70;;
25341;SDS011;13298;48.792;9.154;2023-01-29T16:52:40;12.02;;;7.53;;
25341;SDS011;13298;48.792;9.154;2023-01-29T16:55:46;13.10;;;7.72;;
25341;SDS011;13298;48.792;9.154;2023-01-29T16:58:20;14.18;;;8.30;;
25341;SDS011;13298;48.792;9.154;2023-01-29T17:00:52;15.35;;;8.80;;
25341;SDS011;13298;48.792;9.154;2023-01-29T17:03:23;13.23;;;8.40;;
25341;SDS011;13298;48.792;9.154;2023-01-29T17:05:52;13.05;;;8.27;;
25341;SDS011;13298;48.792;9.154;2023-01-29T17:08:25;13.80;;;8.38;;
25341;SDS011;13298;48.792;9.154;2023-01-29T17:10:56;14.35;;;8.65;;
25341;SDS011;13298;48.792;9.154;2023-01-29T17:13:27;12.75;;;8.32;;
25341;SDS011;13298;48.792;9.154;2023-01-29T17:16:15;13.10;;;8.45;;
25341;SDS011;13298;48.792;9.154;2023-01-29T17:18:47;15.27;;;8.25;;
25341;SDS011;13298;48.792;9.154;2023-01-29T17:21:13;19.20;;;8.70;;
25341;SDS011;13298;48.792;9.154;2023-01-29T17:23:39;12.05;;;7.75;;
25341;SDS011;13298;48.792;9.154;2023-01-29T17:26:05;13.30;;;7.80;;
25341;SDS011;13298;48.792;9.154;2023-01-29T17:28:34;13.50;;;8.05;;
25341;SDS011;13298;48.792;9.154;2023-01-29T17:30:59;13.50;;;7.82;;
25341;SDS011;13298;48.792;9.154;2023-01-29T17:33:25;14.02;;;7.13;;